Terminal Aerodrome Forecast
Issued by NWS St Louis, MO

Home | Current Version | Previous Version | Text Only | Print | Product List | Glossary On
Versions: 1 2 3 4 5 6 7 8 9 10 11 12 13 14 15 16 17 18
000
FTUS43 KLSX 181400 AAA
TAFCOU
TAF AMD
KCOU 181413Z 1814/1912 06005KT 2SM -SN BR OVC025
      TEMPO 1814/1816 1SM -SN BR
     FM181600 07005KT 5SM -SN BR OVC015
     FM182000 07005KT 5SM BR OVC015
     FM190300 07004KT 3SM BR OVC008=

USA.gov is the U.S. government's official web portal to all federal, state and local government web resources and services.